Time;durP1;ratioP1;P1;durP2;ratioP2;P2;SDS_P1;SDS_P2;PMS_P1;PMS_P2;Temp;Humidity;BMP_temperature;BMP_pressure;BME280_temperature;BME280_humidity;BME280_pressure;Samples;Min_cycle;Max_cycle;Signal;HPM_P1;HPM_P2
2022/03/20 00:01:59;;;;;;;11.03;6.90;;;;;;;;;;5116215;28;20896;-78
2022/03/20 00:04:25;;;;;;;9.63;7.10;;;;;;;;;;5115954;28;20912;-78
2022/03/20 00:06:51;;;;;;;10.10;7.97;;;;;;;;;;5114466;28;20505;-78
2022/03/20 00:09:17;;;;;;;8.50;6.60;;;;;;;;;;5115582;28;20501;-78
2022/03/20 00:11:43;;;;;;;13.60;7.23;;;;;;;;;;5112805;28;20411;-78
2022/03/20 00:14:09;;;;;;;11.87;7.70;;;;;;;;;;5115360;28;20402;-78
2022/03/20 00:16:35;;;;;;;9.70;5.67;;;;;;;;;;5115653;28;20964;-79
2022/03/20 00:19:02;;;;;;;8.13;6.60;;;;;;;;;;5114313;28;20417;-78
2022/03/20 00:21:28;;;;;;;11.23;7.93;;;;;;;;;;5116087;27;20413;-78
2022/03/20 00:23:54;;;;;;;12.93;8.87;;;;;;;;;;5114176;28;20416;-78
2022/03/20 00:26:20;;;;;;;8.30;7.20;;;;;;;;;;5115289;28;20406;-78
2022/03/20 00:28:46;;;;;;;12.30;7.87;;;;;;;;;;5115505;28;20780;-78
2022/03/20 00:31:13;;;;;;;10.33;7.50;;;;;;;;;;5114968;28;20502;-78
2022/03/20 00:33:39;;;;;;;13.57;7.63;;;;;;;;;;5115176;28;20455;-78
2022/03/20 00:36:04;;;;;;;14.63;9.13;;;;;;;;;;5114976;28;20453;-78
2022/03/20 00:38:30;;;;;;;12.70;8.67;;;;;;;;;;5115317;28;20431;-78
2022/03/20 00:40:58;;;;;;;14.87;9.30;;;;;;;;;;5115599;28;20400;-78
2022/03/20 00:43:24;;;;;;;10.00;8.77;;;;;;;;;;5115646;28;20417;-78
2022/03/20 00:45:50;;;;;;;15.03;10.17;;;;;;;;;;5113979;28;20413;-77
2022/03/20 00:48:16;;;;;;;12.87;9.40;;;;;;;;;;5114271;28;20417;-78
2022/03/20 00:50:42;;;;;;;15.00;8.90;;;;;;;;;;5115345;28;20469;-78
2022/03/20 00:53:07;;;;;;;13.67;8.60;;;;;;;;;;5113993;28;20767;-78
2022/03/20 00:55:36;;;;;;;14.83;9.63;;;;;;;;;;5114906;28;20405;-78
2022/03/20 00:58:02;;;;;;;12.63;9.40;;;;;;;;;;5115181;28;20466;-78
2022/03/20 01:00:28;;;;;;;14.10;9.17;;;;;;;;;;5115039;28;20406;-78
2022/03/20 01:02:54;;;;;;;18.00;9.60;;;;;;;;;;5115220;28;20770;-78
2022/03/20 01:05:20;;;;;;;16.23;9.93;;;;;;;;;;5115269;28;20401;-78
2022/03/20 01:07:46;;;;;;;15.13;9.37;;;;;;;;;;5115101;28;20492;-77
2022/03/20 01:10:12;;;;;;;15.73;8.70;;;;;;;;;;5115087;27;20407;-78
2022/03/20 01:12:39;;;;;;;14.97;9.10;;;;;;;;;;5113833;28;20514;-79
2022/03/20 01:15:06;;;;;;;13.90;10.40;;;;;;;;;;5114397;28;20426;-78
2022/03/20 01:17:32;;;;;;;19.27;11.07;;;;;;;;;;5114394;28;20472;-78
2022/03/20 01:19:58;;;;;;;13.47;11.27;;;;;;;;;;5114401;28;20407;-78
2022/03/20 01:22:24;;;;;;;16.77;9.70;;;;;;;;;;5112761;28;20502;-78
2022/03/20 01:24:50;;;;;;;17.87;10.97;;;;;;;;;;5114049;28;20897;-78
2022/03/20 01:27:16;;;;;;;17.80;10.73;;;;;;;;;;5111022;28;20436;-78
2022/03/20 01:29:42;;;;;;;15.40;11.03;;;;;;;;;;5113323;28;20415;-78
2022/03/20 01:32:10;;;;;;;21.53;11.20;;;;;;;;;;5113914;28;20898;-77
2022/03/20 01:34:36;;;;;;;18.43;11.10;;;;;;;;;;5169296;22;20478;-78
2022/03/20 01:37:02;;;;;;;19.57;11.77;;;;;;;;;;5104794;28;20476;-78
2022/03/20 01:39:28;;;;;;;15.80;11.23;;;;;;;;;;5101954;28;20423;-78
2022/03/20 01:41:55;;;;;;;16.00;10.73;;;;;;;;;;5103851;27;20826;-78
2022/03/20 01:44:29;;;;;;;17.53;11.87;;;;;;;;;;5103171;28;20420;-78
2022/03/20 01:46:55;;;;;;;15.70;11.37;;;;;;;;;;5104118;28;20418;-78
2022/03/20 01:49:21;;;;;;;18.97;10.53;;;;;;;;;;5102676;28;20998;-78
2022/03/20 01:54:31;;;;;;;14.20;10.00;;;;;;;;;;5103372;28;20398;-78
2022/03/20 01:57:01;;;;;;;15.73;11.33;;;;;;;;;;5103087;28;20461;-78
2022/03/20 01:59:26;;;;;;;14.33;9.50;;;;;;;;;;5102359;28;20414;-78
2022/03/20 02:01:52;;;;;;;16.53;12.17;;;;;;;;;;5114189;28;20558;-78
2022/03/20 02:04:18;;;;;;;19.03;11.37;;;;;;;;;;5114218;27;20405;-78
2022/03/20 02:06:44;;;;;;;20.43;12.00;;;;;;;;;;5114038;28;20810;-78
2022/03/20 02:09:11;;;;;;;14.97;10.77;;;;;;;;;;5113335;28;20501;-78
2022/03/20 02:11:36;;;;;;;15.30;10.30;;;;;;;;;;5114045;28;20414;-78
2022/03/20 02:14:03;;;;;;;17.37;13.60;;;;;;;;;;5112302;28;20807;-78
2022/03/20 02:16:29;;;;;;;13.07;10.67;;;;;;;;;;5113875;28;20484;-78
2022/03/20 02:18:55;;;;;;;19.43;11.40;;;;;;;;;;5113905;28;20815;-78
2022/03/20 02:21:39;;;;;;;14.57;11.23;;;;;;;;;;5113823;28;20438;-78
2022/03/20 02:24:05;;;;;;;16.33;10.83;;;;;;;;;;5113891;28;20466;-78
2022/03/20 02:26:31;;;;;;;15.60;10.97;;;;;;;;;;5113734;28;20466;-78
2022/03/20 02:28:58;;;;;;;15.27;11.30;;;;;;;;;;5113375;27;20811;-78
2022/03/20 02:31:24;;;;;;;18.17;12.63;;;;;;;;;;5106076;28;20516;-78
2022/03/20 02:33:50;;;;;;;14.70;10.73;;;;;;;;;;5091744;28;20493;-79
2022/03/20 02:36:17;;;;;;;15.97;10.63;;;;;;;;;;5093215;28;20490;-78
2022/03/20 02:38:43;;;;;;;16.43;11.60;;;;;;;;;;5093196;28;20410;-78
2022/03/20 02:41:14;;;;;;;14.50;10.70;;;;;;;;;;5093035;28;20464;-78
2022/03/20 02:43:52;;;;;;;15.50;10.40;;;;;;;;;;5092862;28;20827;-78
2022/03/20 02:46:18;;;;;;;13.47;11.03;;;;;;;;;;5093060;28;20951;-78
2022/03/20 02:48:45;;;;;;;13.33;10.33;;;;;;;;;;5095028;28;20497;-78
2022/03/20 02:51:11;;;;;;;19.17;10.60;;;;;;;;;;5091193;28;20410;-78
2022/03/20 02:53:37;;;;;;;15.10;12.77;;;;;;;;;;5093046;28;20456;-78
2022/03/20 02:56:04;;;;;;;14.90;11.13;;;;;;;;;;5092036;28;20863;-78
2022/03/20 02:58:30;;;;;;;11.00;8.53;;;;;;;;;;5092201;28;20493;-78
2022/03/20 03:00:57;;;;;;;19.27;10.93;;;;;;;;;;5091534;28;20503;-77
2022/03/20 03:03:23;;;;;;;22.03;12.00;;;;;;;;;;5092635;28;20551;-77
2022/03/20 03:05:49;;;;;;;13.93;10.03;;;;;;;;;;5092712;28;20432;-78
2022/03/20 03:10:59;;;;;;;16.57;11.10;;;;;;;;;;5092645;28;20424;-78
2022/03/20 03:13:41;;;;;;;15.20;11.33;;;;;;;;;;5092235;28;20493;-77
2022/03/20 03:16:08;;;;;;;14.53;11.80;;;;;;;;;;5092558;28;20485;-78
2022/03/20 03:18:35;;;;;;;15.37;11.10;;;;;;;;;;5092829;28;20419;-78
2022/03/20 03:21:04;;;;;;;19.47;12.07;;;;;;;;;;5096677;28;20403;-78
2022/03/20 03:23:30;;;;;;;16.20;10.57;;;;;;;;;;5096553;28;20448;-77
2022/03/20 03:25:56;;;;;;;14.30;11.03;;;;;;;;;;5096632;28;20417;-77
2022/03/20 03:28:23;;;;;;;20.57;12.57;;;;;;;;;;5096276;28;20415;-77
2022/03/20 03:30:49;;;;;;;16.53;11.80;;;;;;;;;;5096184;28;20411;-78
2022/03/20 03:33:19;;;;;;;14.10;10.77;;;;;;;;;;5096371;28;20589;-78
2022/03/20 03:35:51;;;;;;;17.17;11.00;;;;;;;;;;5096512;28;20426;-78
2022/03/20 03:38:18;;;;;;;15.83;12.63;;;;;;;;;;5096492;28;20806;-77
2022/03/20 03:40:45;;;;;;;16.90;12.30;;;;;;;;;;5096325;28;20403;-78
2022/03/20 03:43:11;;;;;;;18.37;13.13;;;;;;;;;;5094878;28;20444;-78
2022/03/20 03:45:40;;;;;;;15.63;12.57;;;;;;;;;;5095951;28;20434;-78
2022/03/20 03:48:06;;;;;;;15.50;11.80;;;;;;;;;;5096004;28;20413;-77
2022/03/20 03:50:33;;;;;;;23.07;13.70;;;;;;;;;;5096179;28;20418;-78
2022/03/20 03:52:59;;;;;;;18.33;12.63;;;;;;;;;;5095928;28;20960;-78
2022/03/20 03:55:24;;;;;;;20.17;12.43;;;;;;;;;;5095864;28;20511;-77
2022/03/20 03:57:51;;;;;;;15.80;11.60;;;;;;;;;;5095808;28;20851;-78
2022/03/20 04:00:18;;;;;;;20.60;11.90;;;;;;;;;;5095637;28;20410;-78
2022/03/20 04:02:47;;;;;;;15.17;11.53;;;;;;;;;;5096031;28;20391;-78
2022/03/20 04:05:17;;;;;;;19.80;12.80;;;;;;;;;;5095923;28;20490;-77
2022/03/20 04:07:43;;;;;;;16.87;11.20;;;;;;;;;;5095629;28;20495;-77
2022/03/20 04:10:09;;;;;;;19.80;11.43;;;;;;;;;;5095699;28;20493;-78
2022/03/20 04:12:37;;;;;;;16.73;11.53;;;;;;;;;;5095724;28;20434;-77
2022/03/20 04:15:04;;;;;;;17.70;12.20;;;;;;;;;;5095426;28;20439;-77
2022/03/20 04:17:30;;;;;;;20.00;12.40;;;;;;;;;;5095746;28;20866;-78
2022/03/20 04:19:57;;;;;;;14.63;11.80;;;;;;;;;;5094115;28;20418;-78
2022/03/20 04:22:29;;;;;;;16.80;12.43;;;;;;;;;;5095625;28;20464;-78
2022/03/20 04:24:55;;;;;;;15.30;11.73;;;;;;;;;;5095456;28;20439;-78
2022/03/20 04:27:21;;;;;;;13.93;10.07;;;;;;;;;;5095473;28;20415;-78
2022/03/20 04:29:48;;;;;;;18.53;12.20;;;;;;;;;;5094950;28;20452;-78
2022/03/20 04:32:14;;;;;;;18.47;12.83;;;;;;;;;;5094660;28;20780;-77
2022/03/20 04:34:43;;;;;;;19.00;10.33;;;;;;;;;;5095128;28;20450;-77
2022/03/20 04:37:10;;;;;;;19.77;13.83;;;;;;;;;;5095237;28;20474;-77
2022/03/20 04:39:39;;;;;;;19.47;11.30;;;;;;;;;;5095139;28;20406;-77
2022/03/20 04:42:06;;;;;;;16.30;11.50;;;;;;;;;;5095583;28;20406;-76
2022/03/20 04:44:32;;;;;;;19.83;12.17;;;;;;;;;;5094734;28;20446;-77
2022/03/20 04:46:58;;;;;;;18.33;12.57;;;;;;;;;;5095241;28;20493;-77
2022/03/20 05:00:27;;;;;;;20.57;11.97;;;;;;;;;;5094382;28;20398;-77
2022/03/20 05:02:53;;;;;;;14.23;10.83;;;;;;;;;;5094765;28;20916;-78
2022/03/20 05:05:19;;;;;;;17.40;11.53;;;;;;;;;;5094761;28;20907;-78
2022/03/20 05:07:45;;;;;;;14.33;11.90;;;;;;;;;;5094399;28;20791;-78
2022/03/20 05:15:40;;;;;;;19.80;11.90;;;;;;;;;;5094250;28;20924;-78
2022/03/20 05:18:07;;;;;;;14.97;11.67;;;;;;;;;;5094343;28;20564;-78
2022/03/20 05:20:33;;;;;;;18.73;11.47;;;;;;;;;;5094428;28;20433;-77
2022/03/20 05:23:00;;;;;;;16.63;9.60;;;;;;;;;;5094254;28;20444;-77
2022/03/20 05:25:30;;;;;;;16.50;11.80;;;;;;;;;;5094225;28;20821;-78
2022/03/20 05:27:56;;;;;;;17.37;12.40;;;;;;;;;;5094178;28;20413;-77
2022/03/20 05:30:22;;;;;;;18.60;12.10;;;;;;;;;;5093890;28;20760;-78
2022/03/20 05:32:48;;;;;;;21.87;12.57;;;;;;;;;;5094230;28;20424;-78
2022/03/20 05:35:16;;;;;;;19.90;12.93;;;;;;;;;;5093947;28;20465;-77
2022/03/20 05:37:42;;;;;;;17.87;12.10;;;;;;;;;;5093975;28;20511;-78
2022/03/20 05:40:08;;;;;;;17.67;11.70;;;;;;;;;;5093975;28;20895;-78
2022/03/20 05:42:34;;;;;;;14.23;10.40;;;;;;;;;;5092981;28;20429;-78
2022/03/20 05:45:02;;;;;;;12.00;10.07;;;;;;;;;;5093558;28;20407;-78
2022/03/20 05:47:31;;;;;;;14.53;11.50;;;;;;;;;;5093760;28;20411;-77
2022/03/20 05:49:57;;;;;;;17.83;12.30;;;;;;;;;;5093744;28;20418;-78
2022/03/20 05:52:23;;;;;;;15.37;11.93;;;;;;;;;;5093655;28;20421;-78
2022/03/20 05:54:49;;;;;;;18.00;11.90;;;;;;;;;;5092323;28;20421;-77
2022/03/20 05:59:59;;;;;;;15.07;11.57;;;;;;;;;;5093365;28;20455;-78
2022/03/20 06:02:25;;;;;;;17.73;10.77;;;;;;;;;;5093618;28;20521;-78
2022/03/20 06:04:53;;;;;;;16.57;12.57;;;;;;;;;;5093536;28;20447;-78
2022/03/20 06:07:18;;;;;;;19.67;10.80;;;;;;;;;;5093422;28;20886;-77
2022/03/20 06:09:44;;;;;;;15.47;11.67;;;;;;;;;;5093321;28;20435;-77
2022/03/20 06:12:11;;;;;;;19.70;12.80;;;;;;;;;;5093445;28;20505;-78
2022/03/20 06:14:37;;;;;;;15.00;9.70;;;;;;;;;;5093125;28;20404;-78
2022/03/20 06:17:05;;;;;;;15.30;10.40;;;;;;;;;;5093431;28;20466;-78
2022/03/20 06:19:31;;;;;;;18.93;12.57;;;;;;;;;;5093388;28;20399;-77
2022/03/20 06:21:57;;;;;;;15.80;11.17;;;;;;;;;;5093390;28;20922;-78
2022/03/20 06:24:23;;;;;;;15.90;10.20;;;;;;;;;;5093087;28;20404;-78
2022/03/20 06:26:48;;;;;;;14.07;10.40;;;;;;;;;;5093085;28;20494;-77
2022/03/20 06:29:15;;;;;;;18.63;12.00;;;;;;;;;;5092773;28;20408;-77
2022/03/20 06:31:41;;;;;;;15.83;11.20;;;;;;;;;;5092133;28;20467;-77
2022/03/20 06:34:08;;;;;;;16.33;11.77;;;;;;;;;;5092319;28;20499;-77
2022/03/20 06:36:35;;;;;;;22.47;11.40;;;;;;;;;;5093027;28;20841;-78
2022/03/20 06:39:01;;;;;;;15.07;11.20;;;;;;;;;;5093345;28;20884;-77
2022/03/20 06:41:27;;;;;;;15.13;11.30;;;;;;;;;;5092927;28;20419;-77
2022/03/20 06:43:53;;;;;;;13.60;9.83;;;;;;;;;;5092604;28;20402;-77
2022/03/20 06:46:21;;;;;;;16.60;11.13;;;;;;;;;;5092916;28;20463;-77
2022/03/20 06:48:47;;;;;;;15.63;11.20;;;;;;;;;;5092913;28;20510;-77
2022/03/20 06:51:15;;;;;;;16.40;11.13;;;;;;;;;;5092937;28;20499;-77
2022/03/20 06:53:41;;;;;;;17.10;9.60;;;;;;;;;;5092436;28;20429;-78
2022/03/20 06:56:08;;;;;;;14.43;10.37;;;;;;;;;;5092708;28;20935;-77
2022/03/20 06:58:34;;;;;;;17.03;11.30;;;;;;;;;;5092503;28;20414;-78
2022/03/20 07:01:00;;;;;;;16.33;11.20;;;;;;;;;;5092211;28;20398;-79
2022/03/20 07:03:26;;;;;;;13.57;11.33;;;;;;;;;;5092726;28;21026;-78
2022/03/20 07:05:52;;;;;;;14.10;10.90;;;;;;;;;;5091444;28;20462;-78
2022/03/20 07:08:18;;;;;;;13.23;10.83;;;;;;;;;;5092597;28;20493;-78
2022/03/20 07:10:44;;;;;;;11.73;10.17;;;;;;;;;;5092746;28;20886;-78
2022/03/20 07:15:57;;;;;;;14.57;10.57;;;;;;;;;;5092674;28;20781;-78
2022/03/20 07:18:23;;;;;;;15.60;12.17;;;;;;;;;;5092586;28;20466;-78
2022/03/20 07:20:50;;;;;;;13.47;10.73;;;;;;;;;;5092561;28;20423;-78
2022/03/20 07:23:19;;;;;;;13.93;10.80;;;;;;;;;;5092449;28;20460;-78
2022/03/20 07:31:15;;;;;;;15.27;11.27;;;;;;;;;;5092923;28;20410;-78
2022/03/20 07:33:41;;;;;;;14.30;10.20;;;;;;;;;;5092362;28;20495;-78
2022/03/20 07:36:08;;;;;;;13.70;10.23;;;;;;;;;;5092335;28;20774;-78
2022/03/20 07:38:37;;;;;;;17.30;11.97;;;;;;;;;;5092420;28;20849;-77
2022/03/20 07:41:04;;;;;;;12.57;10.30;;;;;;;;;;5092663;28;20403;-78
2022/03/20 07:43:30;;;;;;;15.87;10.97;;;;;;;;;;5092153;28;20916;-78
2022/03/20 07:45:56;;;;;;;13.27;9.93;;;;;;;;;;5092644;28;20459;-78
2022/03/20 07:48:23;;;;;;;14.33;11.13;;;;;;;;;;5092496;28;20441;-77
2022/03/20 07:50:53;;;;;;;11.43;10.23;;;;;;;;;;5092630;28;20397;-78
2022/03/20 07:53:19;;;;;;;15.77;11.53;;;;;;;;;;5092713;28;20408;-78
2022/03/20 07:55:46;;;;;;;20.53;12.63;;;;;;;;;;5092619;28;20765;-78
2022/03/20 07:58:12;;;;;;;15.80;11.60;;;;;;;;;;5092159;28;20549;-78
2022/03/20 08:00:41;;;;;;;19.43;12.53;;;;;;;;;;5092504;28;20531;-78
2022/03/20 08:03:08;;;;;;;16.30;11.20;;;;;;;;;;5092715;28;20416;-78
2022/03/20 08:05:34;;;;;;;20.10;11.23;;;;;;;;;;5092869;28;20409;-78
2022/03/20 08:08:03;;;;;;;15.93;11.33;;;;;;;;;;5096550;28;20439;-78
2022/03/20 08:10:29;;;;;;;19.43;13.10;;;;;;;;;;5096443;28;20433;-77
2022/03/20 08:12:55;;;;;;;14.00;11.43;;;;;;;;;;5096127;28;20415;-77
2022/03/20 08:15:21;;;;;;;12.87;10.53;;;;;;;;;;5096609;28;20433;-77
2022/03/20 08:17:50;;;;;;;16.47;13.00;;;;;;;;;;5096626;28;20530;-77
2022/03/20 08:20:16;;;;;;;14.60;11.43;;;;;;;;;;5096391;28;20450;-77
2022/03/20 08:22:42;;;;;;;13.33;10.33;;;;;;;;;;5096211;28;20438;-77
2022/03/20 08:25:10;;;;;;;14.83;11.33;;;;;;;;;;5096487;28;20493;-78
2022/03/20 08:28:05;;;;;;;14.30;11.00;;;;;;;;;;5096003;28;20774;-79
2022/03/20 08:30:31;;;;;;;18.00;10.87;;;;;;;;;;5095054;28;20430;-78
2022/03/20 08:32:57;;;;;;;13.43;11.07;;;;;;;;;;5096219;28;20410;-78
2022/03/20 08:35:23;;;;;;;14.50;11.53;;;;;;;;;;5096107;28;20458;-78
2022/03/20 08:37:53;;;;;;;16.77;11.27;;;;;;;;;;5094783;28;20527;-78
2022/03/20 08:40:19;;;;;;;13.53;11.63;;;;;;;;;;5095804;28;20404;-78
2022/03/20 08:42:49;;;;;;;15.03;11.53;;;;;;;;;;5095716;28;20408;-76
2022/03/20 08:45:16;;;;;;;16.43;11.70;;;;;;;;;;5095915;28;20417;-76
2022/03/20 08:47:45;;;;;;;17.30;12.37;;;;;;;;;;5094720;28;20436;-76
2022/03/20 08:50:13;;;;;;;14.13;11.83;;;;;;;;;;5095946;28;20418;-75
2022/03/20 08:52:39;;;;;;;15.90;11.20;;;;;;;;;;5095644;28;20405;-79
2022/03/20 08:55:10;;;;;;;12.60;11.20;;;;;;;;;;5095681;28;20409;-76
2022/03/20 08:57:41;;;;;;;13.93;12.23;;;;;;;;;;5094117;28;20829;-76
2022/03/20 09:00:08;;;;;;;16.73;12.60;;;;;;;;;;5095901;28;20405;-77
2022/03/20 09:02:34;;;;;;;12.67;10.60;;;;;;;;;;5095461;28;20529;-76
2022/03/20 09:05:00;;;;;;;14.30;11.90;;;;;;;;;;5095631;28;20404;-75
2022/03/20 09:07:26;;;;;;;13.33;11.70;;;;;;;;;;5095500;28;20451;-75
2022/03/20 09:09:52;;;;;;;14.20;12.80;;;;;;;;;;5095398;28;20504;-75
2022/03/20 09:12:17;;;;;;;14.20;12.70;;;;;;;;;;5095507;28;20420;-76
2022/03/20 09:14:45;;;;;;;12.50;10.87;;;;;;;;;;5095152;28;20416;-76
2022/03/20 09:19:57;;;;;;;13.77;12.30;;;;;;;;;;5095666;28;20401;-77
2022/03/20 09:22:25;;;;;;;15.30;13.30;;;;;;;;;;5093977;28;20409;-76
2022/03/20 09:24:51;;;;;;;21.50;14.10;;;;;;;;;;5094470;28;20402;-77
2022/03/20 09:27:17;;;;;;;16.20;13.50;;;;;;;;;;5105228;28;20472;-77
2022/03/20 09:29:43;;;;;;;15.07;13.63;;;;;;;;;;5111540;28;20420;-77
2022/03/20 09:32:09;;;;;;;13.63;11.60;;;;;;;;;;5114679;28;20425;-77
2022/03/20 09:34:35;;;;;;;14.53;12.07;;;;;;;;;;5113167;28;20590;-77
2022/03/20 09:37:01;;;;;;;17.10;13.57;;;;;;;;;;5114342;28;20454;-77
2022/03/20 09:39:28;;;;;;;13.40;11.93;;;;;;;;;;5114224;28;20436;-77
2022/03/20 09:41:55;;;;;;;14.90;13.47;;;;;;;;;;5113283;28;20910;-78
2022/03/20 09:44:25;;;;;;;15.20;12.97;;;;;;;;;;5113887;28;20438;-77
2022/03/20 09:46:51;;;;;;;18.40;13.83;;;;;;;;;;5114331;28;20489;-77
2022/03/20 09:49:22;;;;;;;17.50;13.37;;;;;;;;;;5114113;28;20708;-77
2022/03/20 09:51:48;;;;;;;16.20;14.50;;;;;;;;;;5114186;28;20935;-77
2022/03/20 09:54:14;;;;;;;16.13;13.90;;;;;;;;;;5113754;28;20399;-77
2022/03/20 09:56:41;;;;;;;18.67;14.40;;;;;;;;;;5113949;28;20510;-78
2022/03/20 09:59:07;;;;;;;18.20;13.97;;;;;;;;;;5113772;28;20404;-78
2022/03/20 10:01:34;;;;;;;15.37;13.63;;;;;;;;;;5113896;28;20421;-77
2022/03/20 10:04:07;;;;;;;15.10;13.00;;;;;;;;;;5113868;28;20439;-78
2022/03/20 10:06:37;;;;;;;16.00;13.60;;;;;;;;;;5112657;28;20418;-81
2022/03/20 10:09:04;;;;;;;16.13;14.53;;;;;;;;;;5099830;28;20825;-78
2022/03/20 10:11:31;;;;;;;18.63;14.17;;;;;;;;;;5093321;28;20504;-78
2022/03/20 10:14:15;;;;;;;15.00;13.40;;;;;;;;;;5092876;28;20932;-78
2022/03/20 10:16:42;;;;;;;16.97;14.33;;;;;;;;;;5091961;28;20559;-77
2022/03/20 10:19:23;;;;;;;15.13;13.53;;;;;;;;;;5093159;28;20409;-78
2022/03/20 10:22:14;;;;;;;17.03;14.63;;;;;;;;;;5093196;28;20906;-77
2022/03/20 10:24:46;;;;;;;15.60;12.90;;;;;;;;;;5088162;28;20427;-78
2022/03/20 10:27:13;;;;;;;15.50;13.57;;;;;;;;;;5092578;28;20431;-78
2022/03/20 10:29:51;;;;;;;14.20;12.73;;;;;;;;;;5092427;28;20811;-78
2022/03/20 10:32:18;;;;;;;15.83;14.07;;;;;;;;;;5092968;28;20850;-78
2022/03/20 10:34:51;;;;;;;14.40;12.90;;;;;;;;;;5092826;28;20457;-78
2022/03/20 10:37:18;;;;;;;15.90;12.83;;;;;;;;;;5092672;28;20509;-78
2022/03/20 10:39:47;;;;;;;15.40;12.07;;;;;;;;;;5092861;28;20438;-78
2022/03/20 10:42:14;;;;;;;17.53;13.13;;;;;;;;;;5092618;28;20404;-78
2022/03/20 10:44:40;;;;;;;16.20;12.03;;;;;;;;;;5092791;28;20908;-78
2022/03/20 10:47:12;;;;;;;13.23;11.87;;;;;;;;;;5091433;28;20421;-78
2022/03/20 10:49:39;;;;;;;14.33;12.93;;;;;;;;;;5092797;28;20409;-78
2022/03/20 10:52:13;;;;;;;14.67;12.87;;;;;;;;;;5092868;28;20411;-78
2022/03/20 10:54:43;;;;;;;14.90;13.27;;;;;;;;;;5092497;28;20446;-78
2022/03/20 10:57:11;;;;;;;15.03;13.43;;;;;;;;;;5092197;28;21088;-77
2022/03/20 10:59:37;;;;;;;15.10;11.40;;;;;;;;;;5092656;28;20987;-78
2022/03/20 11:02:05;;;;;;;16.00;13.40;;;;;;;;;;5092617;28;20421;-78
2022/03/20 11:04:32;;;;;;;13.67;12.10;;;;;;;;;;5092640;28;20760;-77
2022/03/20 11:07:00;;;;;;;14.23;12.60;;;;;;;;;;5092433;28;20410;-77
2022/03/20 11:09:26;;;;;;;15.23;13.67;;;;;;;;;;5092489;28;20428;-77
2022/03/20 11:11:58;;;;;;;15.93;13.43;;;;;;;;;;5092459;28;20774;-77
2022/03/20 11:14:25;;;;;;;15.17;13.70;;;;;;;;;;5091834;28;20404;-78
2022/03/20 11:16:54;;;;;;;14.83;13.07;;;;;;;;;;5092280;28;20476;-77
2022/03/20 11:19:23;;;;;;;13.63;12.23;;;;;;;;;;5092282;28;20920;-77
2022/03/20 11:21:53;;;;;;;15.50;12.77;;;;;;;;;;5092448;28;20495;-77
2022/03/20 11:24:19;;;;;;;16.70;12.97;;;;;;;;;;5092355;28;20504;-78
2022/03/20 11:26:49;;;;;;;15.43;13.90;;;;;;;;;;5092388;28;20470;-77
2022/03/20 11:29:15;;;;;;;13.77;12.37;;;;;;;;;;5092001;28;20399;-78
2022/03/20 11:31:41;;;;;;;16.37;12.93;;;;;;;;;;5092335;28;20421;-78
2022/03/20 11:34:08;;;;;;;17.77;13.33;;;;;;;;;;5092287;28;20465;-78
2022/03/20 11:36:53;;;;;;;13.90;11.77;;;;;;;;;;5092278;28;20821;-77
2022/03/20 11:39:19;;;;;;;15.50;13.70;;;;;;;;;;5092296;28;20852;-77
2022/03/20 11:41:45;;;;;;;15.77;14.03;;;;;;;;;;5094374;28;20517;-77
2022/03/20 11:44:11;;;;;;;14.47;12.53;;;;;;;;;;5095690;28;20184;-77
2022/03/20 11:46:37;;;;;;;14.37;13.00;;;;;;;;;;5095984;28;20409;-77
2022/03/20 11:49:19;;;;;;;15.57;13.30;;;;;;;;;;5095957;28;21092;-77
2022/03/20 11:51:52;;;;;;;19.13;13.23;;;;;;;;;;5095933;28;20505;-77
2022/03/20 11:54:18;;;;;;;14.20;12.30;;;;;;;;;;5096040;28;20414;-77
2022/03/20 11:56:44;;;;;;;15.17;13.53;;;;;;;;;;5095865;28;20836;-78
2022/03/20 11:59:28;;;;;;;16.07;13.37;;;;;;;;;;5095654;28;20407;-77
2022/03/20 12:02:03;;;;;;;15.43;13.00;;;;;;;;;;5095792;28;20446;-77
2022/03/20 12:04:36;;;;;;;15.57;13.03;;;;;;;;;;5095879;28;20457;-78
2022/03/20 12:07:09;;;;;;;14.80;12.80;;;;;;;;;;5094492;28;20944;-78
2022/03/20 12:09:45;;;;;;;14.37;12.80;;;;;;;;;;5094274;28;20418;-79
2022/03/20 12:12:22;;;;;;;20.70;14.40;;;;;;;;;;5095355;28;20496;-78
2022/03/20 12:14:53;;;;;;;14.50;12.00;;;;;;;;;;5095602;28;20462;-78
2022/03/20 12:17:19;;;;;;;16.37;12.90;;;;;;;;;;5095488;28;20554;-77
2022/03/20 12:19:48;;;;;;;15.93;12.73;;;;;;;;;;5094165;28;20419;-78
2022/03/20 12:22:20;;;;;;;12.23;11.00;;;;;;;;;;5094179;28;20428;-78
2022/03/20 12:24:54;;;;;;;15.77;11.93;;;;;;;;;;5095339;28;20467;-77
2022/03/20 12:29:46;;;;;;;14.83;9.47;;;;;;;;;;5095294;28;20422;-78
2022/03/20 12:32:15;;;;;;;18.53;14.03;;;;;;;;;;5095203;28;20529;-77
2022/03/20 12:34:43;;;;;;;14.57;13.13;;;;;;;;;;5095001;28;20554;-78
2022/03/20 12:37:27;;;;;;;13.53;11.90;;;;;;;;;;5095100;28;20464;-77
2022/03/20 12:39:54;;;;;;;13.97;11.80;;;;;;;;;;5095185;28;20437;-77
2022/03/20 12:42:21;;;;;;;15.63;11.83;;;;;;;;;;5093479;28;20816;-79
2022/03/20 12:44:48;;;;;;;13.90;12.30;;;;;;;;;;5094275;28;20456;-77
2022/03/20 12:47:21;;;;;;;14.00;12.40;;;;;;;;;;5095760;28;20398;-78
2022/03/20 12:49:48;;;;;;;14.20;11.80;;;;;;;;;;5095116;28;20427;-78
2022/03/20 12:52:17;;;;;;;15.47;11.73;;;;;;;;;;5094809;28;20409;-77
2022/03/20 12:54:52;;;;;;;14.33;11.30;;;;;;;;;;5094387;28;20425;-77
2022/03/20 12:57:18;;;;;;;13.33;10.87;;;;;;;;;;5095140;28;20488;-78
2022/03/20 12:59:44;;;;;;;13.50;12.00;;;;;;;;;;5095470;28;20497;-78
2022/03/20 13:02:10;;;;;;;15.57;12.33;;;;;;;;;;5095304;28;20508;-77
2022/03/20 13:04:36;;;;;;;15.70;12.40;;;;;;;;;;5095488;28;20489;-77
2022/03/20 13:07:22;;;;;;;17.50;13.90;;;;;;;;;;5095452;28;20510;-76
2022/03/20 13:09:56;;;;;;;15.30;11.13;;;;;;;;;;5095458;28;20401;-77
2022/03/20 13:12:22;;;;;;;15.20;11.70;;;;;;;;;;5094726;28;20416;-76
2022/03/20 13:14:55;;;;;;;14.27;10.83;;;16.20;1.00;;;;;;5095276;28;20411;-77
2022/03/20 13:17:27;;;;;;;11.60;9.97;;;;;;;;;;5093478;28;20474;-77
2022/03/20 13:19:53;;;;;;;15.90;12.10;;;15.40;1.00;;;;;;5095119;28;20417;-78
2022/03/20 13:22:19;;;;;;;12.47;10.97;;;;;;;;;;5094863;28;20473;-79
2022/03/20 13:24:46;;;;;;;12.97;10.60;;;13.50;1.00;;;;;;5094535;28;20535;-79
2022/03/20 13:27:13;;;;;;;13.20;11.00;;;;;;;;;;5094348;28;20849;-77
2022/03/20 13:29:42;;;;;;;13.90;11.43;;;14.20;1.00;;;;;;5094651;28;20410;-77
2022/03/20 13:32:10;;;;;;;14.43;11.10;;;14.00;1.00;;;;;;5099563;28;20419;-77
2022/03/20 13:35:01;;;;;;;13.60;11.00;;;13.80;1.00;;;;;;5103727;28;20441;-77
2022/03/20 13:37:27;;;;;;;12.47;9.87;;;;;;;;;;5100684;28;20466;-78
2022/03/20 13:40:00;;;;;;;17.03;10.23;;;14.20;1.00;;;;;;5100611;28;20428;-78
2022/03/20 13:42:29;;;;;;;18.63;10.83;;;;;;;;;;5102171;28;20902;-77
2022/03/20 13:44:56;;;;;;;14.43;10.60;;;;;;;;;;5103540;28;20513;-77
2022/03/20 13:47:25;;;;;;;17.60;10.83;;;13.60;1.00;;;;;;5102240;28;20921;-77
2022/03/20 13:49:54;;;;;;;14.93;10.03;;;13.40;1.00;;;;;;5102014;28;20418;-77
2022/03/20 13:52:28;;;;;;;15.03;9.70;;;13.30;1.00;;;;;;5100244;28;20474;-77
2022/03/20 13:55:12;;;;;;;14.63;9.83;;;13.80;1.00;;;;;;5101694;28;20409;-77
2022/03/20 13:57:48;;;;;;;10.67;8.37;;;13.70;1.00;;;;;;5103095;28;21040;-77
2022/03/20 14:00:15;;;;;;;12.60;9.50;;;13.30;1.00;;;;;;5103442;28;20445;-77
2022/03/20 14:02:47;;;;;;;9.07;7.60;;;13.50;1.00;;;;;;5101476;28;20410;-77
2022/03/20 14:05:14;;;;;;;13.37;7.83;;;;;;;;;;5098826;28;20433;-76
2022/03/20 14:07:44;;;;;;;14.40;10.33;;;13.30;1.00;;;;;;5103602;28;20404;-77
2022/03/20 14:10:21;;;;;;;13.00;8.87;;;;;;;;;;5103281;28;20420;-77
2022/03/20 14:12:47;;;;;;;12.23;8.97;;;;;;;;;;5102963;28;20916;-77
2022/03/20 14:15:13;;;;;;;11.50;9.87;;;;;;;;;;5112190;28;20507;-76
2022/03/20 14:17:40;;;;;;;10.43;8.70;;;;;;;;;;5103736;28;20887;-77
2022/03/20 14:20:10;;;;;;;13.70;10.07;;;;;;;;;;5100968;28;20413;-77
2022/03/20 14:22:47;;;;;;;13.80;9.70;;;13.30;1.00;;;;;;5103939;27;20411;-77
2022/03/20 14:25:42;;;;;;;11.70;8.67;;;13.30;1.00;;;;;;5103362;28;20442;-78
2022/03/20 14:28:08;;;;;;;10.23;9.00;;;;;;;;;;5101814;28;20791;-77
2022/03/20 14:41:41;;;;;;;13.70;9.30;;;;;;;;;;5113269;28;20401;-77
2022/03/20 14:44:14;;;;;;;14.30;9.87;;;;;;;;;;5113442;28;20799;-76
2022/03/20 14:46:41;;;;;;;13.93;8.63;;;;;;;;;;5113383;28;20464;-77
2022/03/20 14:49:08;;;;;;;13.20;8.77;;;;;;;;;;5113322;28;20437;-76
2022/03/20 14:51:34;;;;;;;13.00;9.27;;;;;;;;;;5113417;28;20911;-77
2022/03/20 14:54:03;;;;;;;12.07;8.90;;;;;;;;;;5112994;28;20419;-77
2022/03/20 14:56:29;;;;;;;19.43;10.70;;;;;;;;;;5112779;28;20414;-77
2022/03/20 14:58:57;;;;;;;12.90;9.13;;;;;;;;;;5113213;28;20420;-77
2022/03/20 15:01:23;;;;;;;10.90;9.10;;;;;;;;;;5111837;28;20447;-77
2022/03/20 15:03:50;;;;;;;11.90;9.10;;;;;;;;;;5113273;28;20410;-77
2022/03/20 15:06:15;;;;;;;14.47;9.57;;;;;;;;;;5111925;28;20453;-76
2022/03/20 15:11:26;;;;;;;13.77;6.90;;;;;;;;;;5113105;28;20902;-77